SBPB/PHB METAR and TAF weather

Enter ICAO airport designator
Station Type Date Time Source
SBPB METAR 2023/01/30 11:00 UTC NOAA

SBPB 301100Z 10007KT 9999 FEW016 ///// Q1010


Station Type Date Time Source
SBPB Decoded METAR 2023/01/30 11:00 UTC NOAA

Parnaiba Aeroporto , Brazil (SBPB) 02-55S 041-45W
Jan 30, 2023 - 06:00 AM EST / 2023.01.30 1100 UTC
Wind: from the E (100 degrees) at 8 MPH (7 KT):0
Visibility: greater than 7 mile(s):0
Sky conditions: mostly clear
Pressure (altimeter): 29.83 in. Hg (1010 hPa)
ob: SBPB 301100Z 10007KT 9999 FEW016 ///// Q1010
cycle: 11

Station Type Date Time Source
SBPB TAF 2023/01/30 12:59 UTC NOAA

TAF SBPB 300859Z 3012/3024 08008G18KT 9999 SCT025 TX31/3016Z TN25/3023Z
TEMPO 3016/3021 SCT025 FEW035TCU
RMK PGX

Example: see airport list